Time;durP1;ratioP1;P1;durP2;ratioP2;P2;SDS_P1;SDS_P2;PMS_P1;PMS_P2;Temp;Humidity;BMP_temperature;BMP_pressure;BME280_temperature;BME280_humidity;BME280_pressure;Samples;Min_cycle;Max_cycle;Signal;HPM_P1;HPM_P2
2023/04/09 00:01:21;;;;;;;44.30;39.23;;;;;;;9.86;86.38;102367.75;5222209;28;20033;-73
2023/04/09 00:03:53;;;;;;;43.13;38.53;;;;;;;9.84;87.19;102366.00;5221176;28;20125;-73
2023/04/09 00:06:24;;;;;;;45.00;40.37;;;;;;;9.81;87.06;102364.22;5222951;28;20470;-72
2023/04/09 00:08:56;;;;;;;47.40;42.27;;;;;;;9.83;87.36;102352.09;5222505;28;20038;-72
2023/04/09 00:11:27;;;;;;;49.63;42.43;;;;;;;9.84;87.13;102363.41;5222869;28;20543;-71
2023/04/09 00:13:58;;;;;;;45.43;39.37;;;;;;;9.85;88.22;102359.94;5222960;28;20064;-72
2023/04/09 00:16:30;;;;;;;44.17;39.37;;;;;;;9.73;87.01;102359.75;5221686;28;20042;-73
2023/04/09 00:19:01;;;;;;;43.80;39.17;;;;;;;9.79;87.54;102355.50;5222582;28;20126;-72
2023/04/09 00:21:33;;;;;;;43.87;39.20;;;;;;;9.84;87.15;102359.06;5239680;28;20520;-72
2023/04/09 00:24:04;;;;;;;42.40;37.80;;;;;;;9.78;87.51;102358.09;5242992;28;20060;-71
2023/04/09 00:26:36;;;;;;;43.43;38.00;;;;;;;9.77;87.84;102352.03;5241462;28;20527;-73
2023/04/09 00:29:07;;;;;;;40.13;35.57;;;;;;;9.77;88.15;102356.34;5242841;28;20171;-72
2023/04/09 00:31:38;;;;;;;40.13;35.90;;;;;;;9.74;88.46;102348.47;5241769;28;20040;-73
2023/04/09 00:34:10;;;;;;;39.63;35.53;;;;;;;9.77;88.54;102345.91;5243133;28;20049;-72
2023/04/09 00:36:41;;;;;;;39.60;35.37;;;;;;;9.75;88.69;102343.28;5241814;28;20473;-72
2023/04/09 00:39:13;;;;;;;39.17;34.97;;;;;;;9.73;88.81;102341.53;5242871;28;20039;-72
2023/04/09 00:41:44;;;;;;;37.43;33.43;;;;;;;9.73;88.88;102350.22;5242839;28;20083;-72
2023/04/09 00:44:15;;;;;;;37.23;33.33;;;;;;;9.84;88.55;102348.66;5241642;28;20034;-72
2023/04/09 00:46:47;;;;;;;36.03;32.30;;;;;;;9.83;88.90;102346.00;5242787;28;20029;-71
2023/04/09 00:49:18;;;;;;;36.13;32.47;;;;;;;9.75;88.82;102345.88;5242820;28;20119;-72
2023/04/09 00:51:50;;;;;;;35.47;31.60;;;;;;;9.72;90.23;102345.84;5242647;28;20033;-72
2023/04/09 00:54:21;;;;;;;33.87;30.27;;;;;;;9.67;89.63;102343.16;5242654;28;20115;-72
2023/04/09 00:56:55;;;;;;;35.20;31.43;;;;;;;9.62;89.82;102344.81;5242304;28;20033;-72
2023/04/09 00:59:27;;;;;;;33.40;30.00;;;;;;;9.62;90.42;102341.34;5242015;28;20033;-72
2023/04/09 01:01:59;;;;;;;34.35;30.75;;;;;;;9.52;90.31;102337.72;5242743;28;20037;-73
2023/04/09 01:04:30;;;;;;;33.70;30.13;;;;;;;9.60;90.97;102337.84;5242441;28;20029;-73
2023/04/09 01:07:15;;;;;;;34.03;29.70;;;;;;;9.55;91.13;102334.31;5242163;28;20083;-73
2023/04/09 01:10:18;;;;;;;33.92;30.40;;;;;;;9.57;91.88;102325.66;5241102;28;20529;-73
2023/04/09 01:13:07;;;;;;;29.95;26.75;;;;;;;9.64;90.77;102329.22;5242161;28;20021;-73
2023/04/09 01:15:47;;;;;;;30.45;27.25;;;;;;;9.56;92.13;102331.69;5240851;28;20037;-72
2023/04/09 01:18:23;;;;;;;33.38;28.33;;;;;;;9.47;91.53;102321.16;5242155;28;20026;-73
2023/04/09 01:21:09;;;;;;;28.90;25.77;;;;;;;9.54;91.68;102328.19;5240912;28;20029;-73
2023/04/09 01:24:19;;;;;;;30.75;27.35;;;;;;;9.57;92.35;102324.78;5241928;28;20041;-73
2023/04/09 01:26:57;;;;;;;27.92;25.13;;;;;;;9.44;92.06;102321.09;5242227;28;20057;-71
2023/04/09 01:29:32;;;;;;;28.83;25.80;;;;;;;9.41;92.59;102319.31;5241604;28;20141;-72
2023/04/09 01:32:06;;;;;;;29.75;26.50;;;;;;;9.34;92.13;102314.88;5241610;28;20033;-72
2023/04/09 01:34:38;;;;;;;29.65;26.48;;;;;;;9.35;92.94;102314.00;5242196;28;20029;-72
2023/04/09 01:37:11;;;;;;;29.05;25.90;;;;;;;9.46;92.74;102324.59;5242086;28;20061;-72
2023/04/09 01:39:42;;;;;;;;;;;;;;;9.53;91.47;102323.88;5242247;28;20045;-72
2023/04/09 01:42:15;;;;;;;31.13;26.92;;;;;;;9.35;92.92;102327.00;5241858;28;19916;-71
2023/04/09 01:44:47;;;;;;;30.98;26.13;;;;;;;9.28;93.00;102315.63;5241485;28;20030;-71
2023/04/09 01:47:19;;;;;;;29.80;26.70;;;;;;;9.44;92.95;102319.38;5241555;28;20431;-72
2023/04/09 01:49:51;;;;;;;30.07;26.97;;;;;;;9.37;93.43;102314.03;5241484;28;20065;-71
2023/04/09 01:52:23;;;;;;;29.35;26.15;;;;;;;9.35;93.37;102310.53;5240453;28;20056;-72
2023/04/09 01:54:54;;;;;;;29.47;26.30;;;;;;;9.24;93.46;102316.44;5241735;28;20025;-71
2023/04/09 01:57:25;;;;;;;30.67;27.47;;;;;;;9.24;93.79;102310.34;5240481;28;20029;-72
2023/04/09 01:59:57;;;;;;;30.23;27.07;;;;;;;9.29;93.68;102316.53;5241193;28;20042;-71
2023/04/09 02:02:39;;;;;;;30.33;27.13;;;;;;;9.39;93.48;102314.94;5241674;28;20029;-71
2023/04/09 02:05:14;;;;;;;29.42;26.33;;;;;;;9.39;93.25;102307.16;5241762;28;20023;-71
2023/04/09 02:07:50;;;;;;;29.35;26.20;;;;;;;9.36;93.61;102313.16;5241660;28;20553;-71
2023/04/09 02:10:25;;;;;;;31.23;27.92;;;;;;;9.32;94.50;102319.16;5241680;28;20439;-71
2023/04/09 02:12:59;;;;;;;30.85;26.85;;;;;;;9.28;94.94;102307.81;5241296;28;20077;-71
2023/04/09 02:15:33;;;;;;;30.35;26.65;;;;;;;9.26;94.65;102317.34;5241528;28;20029;-71
2023/04/09 02:18:04;;;;;;;31.30;27.95;;;;;;;9.28;95.61;102309.56;5241766;28;20033;-71
2023/04/09 02:20:36;;;;;;;32.07;28.60;;;;;;;9.26;96.10;102306.06;5242637;28;20045;-73
2023/04/09 02:23:07;;;;;;;31.63;28.27;;;;;;;9.32;95.48;102308.75;5244980;28;20029;-71
2023/04/09 02:25:38;;;;;;;35.63;29.63;;;;;;;9.21;95.40;102307.69;5247507;28;20049;-72
2023/04/09 02:28:10;;;;;;;30.97;27.50;;;;;;;9.23;95.49;102304.28;5251074;28;20113;-70
2023/04/09 02:30:41;;;;;;;33.70;30.07;;;;;;;9.12;95.31;102303.22;5252519;28;20034;-71
2023/04/09 02:33:13;;;;;;;32.33;28.90;;;;;;;9.20;95.17;102308.56;5252482;28;20045;-71
2023/04/09 02:35:44;;;;;;;40.13;29.90;;;;;;;9.21;95.83;102310.28;5252568;28;20029;-71
2023/04/09 02:38:15;;;;;;;38.70;31.10;;;;;;;9.17;95.51;102301.56;5250482;28;20087;-69
2023/04/09 02:40:47;;;;;;;32.87;29.30;;;;;;;9.25;95.73;102306.91;5252664;28;20030;-71
2023/04/09 02:43:18;;;;;;;33.80;29.80;;;;;;;9.30;95.38;102302.63;5255959;28;20033;-71
2023/04/09 02:45:49;;;;;;;35.47;30.60;;;;;;;9.20;95.30;102305.94;5255831;28;20034;-72
2023/04/09 02:48:21;;;;;;;36.23;31.53;;;;;;;9.18;95.63;102298.13;5255607;28;20068;-71
2023/04/09 02:50:52;;;;;;;36.23;31.93;;;;;;;9.19;95.94;102299.84;5256122;28;20029;-70
2023/04/09 02:53:24;;;;;;;33.97;30.33;;;;;;;9.17;96.40;102304.16;5247516;28;20041;-71
2023/04/09 02:55:56;;;;;;;39.83;33.10;;;;;;;9.18;95.76;102289.44;5245357;28;20470;-71
2023/04/09 02:58:27;;;;;;;36.03;32.10;;;;;;;9.12;96.08;102287.59;5245089;28;20112;-72
2023/04/09 03:00:58;;;;;;;37.93;32.33;;;;;;;9.24;96.13;102302.53;5244861;28;20033;-71
2023/04/09 03:03:30;;;;;;;37.83;33.77;;;;;;;9.16;96.40;102288.53;5245221;28;20035;-73
2023/04/09 03:06:01;;;;;;;41.17;35.63;;;;;;;9.03;96.08;102287.44;5244636;28;20041;-72
2023/04/09 03:08:33;;;;;;;42.20;35.57;;;;;;;9.01;96.34;102290.00;5244703;28;20172;-72
2023/04/09 03:11:04;;;;;;;40.50;34.60;;;;;;;8.99;96.44;102281.31;5244634;28;20535;-72
2023/04/09 03:13:36;;;;;;;39.43;34.03;;;;;;;8.99;96.41;102285.63;5244571;28;20040;-72
2023/04/09 03:16:09;;;;;;;38.27;34.10;;;;;;;9.00;96.57;102283.06;5244264;28;20040;-72
2023/04/09 03:18:40;;;;;;;40.60;34.15;;;;;;;9.04;96.95;102284.84;5244373;28;20079;-72
2023/04/09 03:21:11;;;;;;;42.60;33.83;;;;;;;8.96;97.08;102281.25;5244124;28;20034;-72
2023/04/09 03:23:43;;;;;;;39.77;34.67;;;;;;;8.89;96.98;102272.47;5244350;28;20049;-72
2023/04/09 03:26:14;;;;;;;44.53;37.50;;;;;;;8.88;97.12;102273.31;5244297;28;20046;-72
2023/04/09 03:28:45;;;;;;;40.37;34.50;;;;;;;8.82;97.15;102274.91;5243785;28;20037;-73
2023/04/09 03:31:17;;;;;;;42.73;34.87;;;;;;;8.85;97.31;102273.25;5244309;28;20033;-71
2023/04/09 03:33:48;;;;;;;42.63;35.13;;;;;;;8.83;97.67;102279.28;5243832;28;20033;-73
2023/04/09 03:36:19;;;;;;;42.60;35.50;;;;;;;8.88;97.22;102272.44;5242946;28;20370;-71
2023/04/09 03:38:51;;;;;;;45.03;35.17;;;;;;;8.80;97.30;102269.69;5243369;28;20476;-71
2023/04/09 03:41:22;;;;;;;41.93;35.80;;;;;;;8.71;97.72;102267.81;5244085;28;20072;-71
2023/04/09 03:43:53;;;;;;;43.40;36.17;;;;;;;8.72;98.31;102266.06;5244001;28;20033;-71
2023/04/09 03:46:25;;;;;;;43.67;36.63;;;;;;;8.70;98.28;102271.25;5243959;28;20485;-73
2023/04/09 03:48:56;;;;;;;45.13;36.23;;;;;;;8.65;98.50;102270.28;5243635;28;20041;-71
2023/04/09 03:51:27;;;;;;;43.93;37.17;;;;;;;8.67;98.38;102271.19;5243711;28;20124;-72
2023/04/09 03:53:59;;;;;;;41.23;35.80;;;;;;;8.68;98.37;102270.34;5243784;28;20076;-71
2023/04/09 03:56:30;;;;;;;42.33;34.77;;;;;;;8.68;98.04;102262.53;5243464;28;20044;-71
2023/04/09 03:59:01;;;;;;;40.47;34.77;;;;;;;8.71;98.08;102262.59;5243338;28;20476;-71
2023/04/09 04:01:33;;;;;;;39.27;34.63;;;;;;;8.65;97.38;102262.50;5242405;28;20036;-71
2023/04/09 04:04:04;;;;;;;46.57;36.13;;;;;;;8.71;97.42;102272.09;5243599;28;20466;-71
2023/04/09 04:06:36;;;;;;;43.53;35.83;;;;;;;8.62;96.95;102262.44;5243290;28;20026;-71
2023/04/09 04:09:07;;;;;;;43.67;36.57;;;;;;;8.60;96.60;102274.53;5243565;28;20059;-71
2023/04/09 04:11:39;;;;;;;41.73;35.20;;;;;;;8.64;96.14;102263.31;5243205;28;20501;-71
2023/04/09 04:14:10;;;;;;;43.20;35.73;;;;;;;8.60;96.30;102265.81;5243480;28;20334;-71
2023/04/09 04:16:41;;;;;;;45.10;35.07;;;;;;;8.57;96.38;102280.53;5243584;28;20033;-71
2023/04/09 04:19:13;;;;;;;42.50;35.07;;;;;;;8.56;96.68;102276.19;5243414;28;20034;-71
2023/04/09 04:21:44;;;;;;;46.10;36.47;;;;;;;8.53;96.72;102276.13;5242979;28;20029;-71
2023/04/09 04:24:15;;;;;;;40.70;34.83;;;;;;;8.52;96.60;102270.91;5241967;28;20072;-72
2023/04/09 04:26:47;;;;;;;40.33;33.77;;;;;;;8.58;96.92;102266.69;5243059;28;20049;-71
2023/04/09 04:29:18;;;;;;;45.77;35.70;;;;;;;8.52;96.40;102268.31;5241497;28;20048;-71
2023/04/09 04:31:49;;;;;;;42.93;35.90;;;;;;;8.44;96.33;102264.69;5243098;28;20029;-71
2023/04/09 04:34:21;;;;;;;47.03;36.37;;;;;;;8.44;96.86;102262.94;5242755;28;20083;-71
2023/04/09 04:36:52;;;;;;;43.13;35.77;;;;;;;8.30;96.78;102264.38;5242995;28;20040;-71
2023/04/09 04:39:23;;;;;;;47.03;37.03;;;;;;;8.27;97.49;102267.75;5242468;28;20033;-71
2023/04/09 04:41:55;;;;;;;43.47;35.43;;;;;;;8.15;97.65;102268.41;5242829;28;20419;-71
2023/04/09 04:44:27;;;;;;;41.13;34.63;;;;;;;8.06;97.88;102269.91;5242411;28;20037;-72
2023/04/09 04:46:58;;;;;;;45.73;35.43;;;;;;;8.00;98.15;102274.16;5242968;28;20382;-71
2023/04/09 04:49:30;;;;;;;43.73;36.77;;;;;;;7.83;98.95;102270.28;5242296;28;20025;-72
2023/04/09 04:52:01;;;;;;;43.65;36.38;;;;;;;7.72;99.38;102277.81;5242305;28;20511;-71
2023/04/09 04:54:33;;;;;;;42.20;34.63;;;;;;;7.60;100.00;102275.84;5242323;28;20108;-71
2023/04/09 04:57:04;;;;;;;44.57;35.87;;;;;;;7.49;100.00;102279.91;5242564;28;20486;-71
2023/04/09 04:59:38;;;;;;;45.20;35.63;;;;;;;7.37;100.00;102275.25;5241794;28;20035;-71
2023/04/09 05:02:09;;;;;;;41.35;35.55;;;;;;;7.20;100.00;102272.28;5242266;28;20342;-71
2023/04/09 05:04:41;;;;;;;43.20;36.27;;;;;;;7.11;100.00;102266.84;5242172;28;20037;-71
2023/04/09 05:07:12;;;;;;;42.17;34.10;;;;;;;7.00;100.00;102266.56;5242166;28;20037;-70
2023/04/09 05:09:44;;;;;;;42.73;35.03;;;;;;;6.96;100.00;102269.94;5242011;28;20033;-70
2023/04/09 05:12:16;;;;;;;43.63;34.57;;;;;;;6.85;100.00;102261.88;5242139;28;20033;-71
2023/04/09 05:14:48;;;;;;;40.80;34.47;;;;;;;6.83;100.00;102268.72;5241991;28;20041;-71
2023/04/09 05:17:19;;;;;;;42.87;33.80;;;;;;;6.71;100.00;102264.13;5241882;28;20041;-71
2023/04/09 05:19:53;;;;;;;44.47;34.20;;;;;;;6.68;100.00;102258.84;5241864;28;20081;-71
2023/04/09 05:22:25;;;;;;;42.25;32.97;;;;;;;6.60;100.00;102268.13;5241978;28;20034;-72
2023/04/09 05:24:56;;;;;;;45.73;33.87;;;;;;;6.56;100.00;102267.13;5241685;28;20129;-70
2023/04/09 05:27:28;;;;;;;47.23;34.67;;;;;;;6.60;100.00;102269.81;5242215;28;20061;-70
2023/04/09 05:30:00;;;;;;;43.20;32.83;;;;;;;6.52;100.00;102269.59;5241010;28;20059;-71
2023/04/09 05:32:31;;;;;;;43.00;33.90;;;;;;;6.55;100.00;102272.28;5241623;28;20453;-71
2023/04/09 05:35:03;;;;;;;46.10;33.10;;;;;;;6.55;100.00;102274.88;5240148;28;20032;-70
2023/04/09 05:37:34;;;;;;;45.60;33.90;;;;;;;6.54;100.00;102274.00;5241517;28;20040;-70
2023/04/09 05:40:06;;;;;;;41.63;33.10;;;;;;;6.43;100.00;102266.78;5241276;28;20053;-70
2023/04/09 05:42:37;;;;;;;41.30;31.60;;;;;;;6.48;100.00;102268.66;5241860;28;20099;-70
2023/04/09 05:45:09;;;;;;;39.07;31.67;;;;;;;6.49;100.00;102272.13;5240039;28;20280;-70
2023/04/09 05:47:41;;;;;;;41.53;33.35;;;;;;;6.53;100.00;102273.97;5241527;28;20036;-70
2023/04/09 05:50:12;;;;;;;46.47;33.07;;;;;;;6.42;100.00;102270.19;5241243;28;20033;-70
2023/04/09 05:52:43;;;;;;;42.33;32.30;;;;;;;6.41;100.00;102274.50;5241452;28;20083;-70
2023/04/09 05:55:15;;;;;;;44.13;33.87;;;;;;;6.54;100.00;102273.13;5241517;28;20033;-70
2023/04/09 05:57:46;;;;;;;40.60;33.17;;;;;;;6.51;100.00;102273.03;5241418;28;20500;-70
2023/04/09 06:00:17;;;;;;;38.63;32.07;;;;;;;6.56;100.00;102276.63;5242113;28;20034;-70
2023/04/09 06:02:49;;;;;;;40.87;32.13;;;;;;;6.56;100.00;102279.22;5245712;28;20029;-71
2023/04/09 06:05:21;;;;;;;41.67;31.70;;;;;;;6.64;100.00;102284.63;5245677;28;20072;-70
2023/04/09 06:07:52;;;;;;;44.03;33.27;;;;;;;6.61;100.00;102292.31;5245623;28;20317;-70
2023/04/09 06:10:24;;;;;;;42.13;33.20;;;;;;;6.67;100.00;102285.59;5245593;28;20116;-71
2023/04/09 06:12:55;;;;;;;41.63;32.23;;;;;;;6.70;100.00;102292.56;5245181;28;20033;-70
2023/04/09 06:15:27;;;;;;;43.07;32.97;;;;;;;6.81;100.00;102283.38;5245451;28;20069;-71
2023/04/09 06:17:58;;;;;;;45.77;34.03;;;;;;;6.74;100.00;102284.03;5245401;28;20037;-71
2023/04/09 06:20:30;;;;;;;42.43;32.90;;;;;;;6.78;100.00;102291.06;5245059;28;20117;-71
2023/04/09 06:23:01;;;;;;;40.57;32.33;;;;;;;6.85;100.00;102290.38;5245218;28;20421;-70
2023/04/09 06:25:34;;;;;;;41.53;31.23;;;;;;;7.00;100.00;102284.72;5244935;28;20065;-71
2023/04/09 06:28:05;;;;;;;43.72;32.55;;;;;;;6.98;100.00;102289.00;5245425;28;20037;-77
2023/04/09 06:30:37;;;;;;;40.97;32.73;;;;;;;6.98;100.00;102296.75;5245157;28;20148;-70
2023/04/09 06:33:08;;;;;;;41.43;32.53;;;;;;;7.08;100.00;102293.59;5245144;28;20078;-70
2023/04/09 06:35:39;;;;;;;40.97;31.43;;;;;;;7.11;100.00;102290.19;5244974;28;20030;-71
2023/04/09 06:38:11;;;;;;;43.60;31.40;;;;;;;7.14;100.00;102287.69;5244951;28;20112;-70
2023/04/09 06:40:42;;;;;;;40.40;33.03;;;;;;;7.28;100.00;102293.22;5243741;28;20507;-71
2023/04/09 06:43:14;;;;;;;43.03;32.93;;;;;;;7.31;100.00;102293.31;5245070;28;20036;-70
2023/04/09 06:45:46;;;;;;;43.80;33.07;;;;;;;7.35;99.64;102299.44;5244647;28;20492;-70
2023/04/09 06:48:17;;;;;;;42.17;33.97;;;;;;;7.38;99.35;102300.38;5245004;28;20171;-71
2023/04/09 06:50:48;;;;;;;41.97;33.77;;;;;;;7.49;99.69;102306.72;5244685;28;20279;-70
2023/04/09 06:53:20;;;;;;;42.33;33.50;;;;;;;7.53;99.10;102307.66;5244469;28;20111;-73
2023/04/09 06:55:51;;;;;;;40.07;32.77;;;;;;;7.57;99.12;102313.81;5244591;28;20393;-70
2023/04/09 06:58:22;;;;;;;41.00;33.37;;;;;;;7.65;98.57;102314.88;5244200;28;20026;-70
2023/04/09 07:00:54;;;;;;;43.13;32.97;;;;;;;7.65;98.55;102307.09;5244540;28;20033;-70
2023/04/09 07:03:26;;;;;;;45.10;34.53;;;;;;;7.75;98.48;102313.38;5244523;28;20033;-71
2023/04/09 07:05:57;;;;;;;39.53;31.55;;;;;;;7.78;98.11;102311.72;5244466;28;20144;-70
2023/04/09 07:08:29;;;;;;;37.23;31.93;;;;;;;7.98;97.67;102309.56;5244491;28;20048;-71
2023/04/09 07:11:00;;;;;;;40.00;32.43;;;;;;;8.02;97.38;102311.41;5244157;28;20025;-70
2023/04/09 07:13:32;;;;;;;35.97;31.53;;;;;;;8.15;96.07;102314.28;5244337;28;20041;-71
2023/04/09 07:16:04;;;;;;;44.87;32.53;;;;;;;8.29;95.54;102311.97;5242863;28;20041;-70
2023/04/09 07:18:35;;;;;;;40.10;32.20;;;;;;;8.42;94.27;102315.69;5244293;28;20033;-70
2023/04/09 07:21:06;;;;;;;38.17;33.23;;;;;;;8.51;93.66;102308.13;5242020;28;20033;-70
2023/04/09 07:23:38;;;;;;;39.77;31.13;;;;;;;8.58;92.37;102313.47;5244225;28;20457;-70
2023/04/09 07:26:10;;;;;;;36.10;31.50;;;;;;;8.74;92.23;102309.47;5243197;28;20426;-70
2023/04/09 07:28:41;;;;;;;36.08;30.83;;;;;;;9.01;92.40;102316.00;5243707;28;20500;-70
2023/04/09 07:31:13;;;;;;;34.57;30.47;;;;;;;9.09;90.48;102318.75;5243485;28;20029;-70
2023/04/09 07:33:44;;;;;;;34.40;29.90;;;;;;;9.24;90.01;102319.03;5243598;28;20084;-70
2023/04/09 07:36:15;;;;;;;35.43;31.07;;;;;;;9.38;89.13;102315.78;5243341;28;20155;-70
2023/04/09 07:38:47;;;;;;;36.17;31.30;;;;;;;9.57;88.01;102306.56;5242038;28;20128;-71
2023/04/09 07:41:18;;;;;;;36.13;31.60;;;;;;;9.69;86.61;102309.34;5242573;28;20034;-71
2023/04/09 07:43:50;;;;;;;35.77;30.80;;;;;;;9.84;85.08;102317.38;5243583;28;20072;-71
2023/04/09 07:46:21;;;;;;;34.43;29.17;;;;;;;10.05;84.87;102313.34;5243075;28;20026;-71
2023/04/09 07:48:53;;;;;;;39.13;31.80;;;;;;;10.13;84.76;102314.31;5243377;28;20041;-71
2023/04/09 07:51:24;;;;;;;36.50;32.50;;;;;;;10.16;84.45;102322.19;5241551;28;20109;-72
2023/04/09 07:53:55;;;;;;;35.50;31.57;;;;;;;10.34;84.58;102318.97;5238123;28;20030;-70
2023/04/09 07:56:27;;;;;;;33.77;27.97;;;;;;;10.35;83.24;102314.63;5221880;28;20048;-71
2023/04/09 07:58:58;;;;;;;38.03;31.40;;;;;;;10.27;82.45;102321.44;5221142;28;20037;-70
2023/04/09 08:01:30;;;;;;;36.53;32.53;;;;;;;10.28;82.03;102318.84;5222202;28;20052;-70
2023/04/09 08:04:01;;;;;;;37.33;31.63;;;;;;;10.33;81.85;102318.97;5237576;28;20191;-71
2023/04/09 08:06:32;;;;;;;36.53;32.00;;;;;;;10.39;82.42;102317.28;5241124;28;20037;-71
2023/04/09 08:09:05;;;;;;;37.47;31.53;;;;;;;10.41;81.88;102306.88;5243432;28;20480;-71
2023/04/09 08:11:36;;;;;;;37.30;32.80;;;;;;;10.38;81.65;102312.97;5242404;28;20088;-70
2023/04/09 08:14:11;;;;;;;35.23;31.10;;;;;;;10.36;82.08;102313.78;5237103;28;20618;-71
2023/04/09 08:16:48;;;;;;;35.85;31.95;;;;;;;10.64;81.95;102307.19;5235957;28;20030;-71
2023/04/09 08:19:20;;;;;;;37.67;33.67;;;;;;;10.74;80.82;102309.03;5221841;28;20030;-72
2023/04/09 08:21:51;;;;;;;39.10;32.47;;;;;;;10.95;79.68;102307.50;5239654;28;20059;-71
2023/04/09 08:24:22;;;;;;;36.53;32.30;;;;;;;10.97;80.14;102307.53;5240406;28;20056;-71
2023/04/09 08:26:55;;;;;;;34.77;31.03;;;;;;;11.03;79.42;102304.94;5236465;28;20405;-72
2023/04/09 08:29:27;;;;;;;;;;;;;;;11.43;80.84;102314.03;5241040;28;20030;-70
2023/04/09 08:31:58;;;;;;;39.58;33.25;;;;;;;11.69;78.40;102318.59;5241705;28;19984;-70
2023/04/09 08:34:29;;;;;;;36.53;32.43;;;;;;;12.09;75.26;102310.13;5239971;28;20038;-70
2023/04/09 08:37:01;;;;;;;36.03;31.87;;;;;;;12.46;73.53;102319.03;5240058;28;20126;-70
2023/04/09 08:39:33;;;;;;;36.37;32.17;;;;;;;12.68;72.73;102322.59;5242083;28;20389;-71
2023/04/09 08:42:06;;;;;;;38.05;32.08;;;;;;;12.72;72.03;102311.28;5240001;28;20036;-70
2023/04/09 08:44:37;;;;;;;36.38;32.20;;;;;;;12.50;71.77;102306.84;5241902;28;20480;-70
2023/04/09 08:47:10;;;;;;;34.00;30.43;;;;;;;12.56;71.62;102307.72;5241344;28;20030;-70
2023/04/09 08:49:42;;;;;;;39.15;31.27;;;;;;;12.54;71.03;102305.97;5240585;28;20441;-69
2023/04/09 08:52:15;;;;;;;34.23;30.43;;;;;;;12.72;71.15;102306.03;5240957;28;20270;-69
2023/04/09 08:54:48;;;;;;;35.25;30.98;;;;;;;12.92;71.93;102302.59;5240782;28;20446;-70
2023/04/09 08:57:19;;;;;;;36.55;32.63;;;;;;;13.03;69.40;102302.63;5239691;28;20025;-70
2023/04/09 08:59:50;;;;;;;35.33;31.47;;;;;;;13.09;69.98;102305.25;5241792;28;20040;-70
2023/04/09 09:02:23;;;;;;;35.77;31.87;;;;;;;13.10;68.64;102301.75;5241729;28;20043;-71
2023/04/09 09:04:59;;;;;;;36.03;30.92;;;;;;;13.21;68.55;102305.25;5241028;28;20044;-72
2023/04/09 09:07:31;;;;;;;33.97;30.20;;;;;;;13.11;67.96;102304.34;5240285;28;20033;-71
2023/04/09 09:10:03;;;;;;;37.13;31.73;;;;;;;13.27;67.21;102300.00;5241424;28;20037;-71
2023/04/09 09:12:40;;;;;;;39.10;32.78;;;;;;;13.73;66.71;102306.13;5241074;28;20480;-71
2023/04/09 09:15:28;;;;;;;33.97;30.38;;;;;;;13.97;66.82;102299.94;5241887;28;20029;-72
2023/04/09 09:18:00;;;;;;;34.08;30.48;;;;;;;14.17;66.05;102311.25;5240096;28;20053;-71
2023/04/09 09:20:31;;;;;;;33.33;29.35;;;;;;;14.60;61.66;102294.47;5240798;28;20025;-73
2023/04/09 09:23:03;;;;;;;34.70;30.23;;;;;;;15.53;60.00;102307.81;5241629;28;20064;-72
2023/04/09 09:25:41;;;;;;;32.80;28.97;;;;;;;15.99;56.48;102304.75;5240049;28;20501;-72
2023/04/09 09:28:12;;;;;;;31.80;28.50;;;;;;;16.48;54.66;102310.31;5241548;28;20025;-70
2023/04/09 09:30:45;;;;;;;32.20;28.77;;;;;;;17.07;54.92;102306.00;5240671;28;20052;-70
2023/04/09 09:33:16;;;;;;;31.15;27.90;;;;;;;17.83;51.18;102294.13;5240129;28;20033;-70
2023/04/09 09:35:53;;;;;;;29.83;26.83;;;;;;;17.95;49.86;102299.22;5241175;28;20033;-70
2023/04/09 09:38:24;;;;;;;29.88;26.77;;;;;;;17.92;47.41;102298.38;5240414;28;20048;-70
2023/04/09 09:40:56;;;;;;;29.33;26.43;;;;;;;18.31;47.24;102291.44;5223445;28;20473;-70
2023/04/09 09:43:40;;;;;;;28.00;25.20;;;;;;;18.63;48.53;102291.63;5240820;28;20037;-70
2023/04/09 09:46:12;;;;;;;28.15;25.15;;;;;;;18.46;45.45;102298.16;5241102;28;20038;-70
2023/04/09 09:48:48;;;;;;;27.20;24.50;;;;;;;18.55;44.75;102289.19;5241370;28;20044;-70
2023/04/09 09:51:26;;;;;;;27.75;24.92;;;;;;;18.32;46.43;102282.63;5241054;28;20294;-70
2023/04/09 09:53:58;;;;;;;27.83;24.95;;;;;;;18.70;46.16;102282.69;5241182;28;20108;-70
2023/04/09 09:56:33;;;;;;;24.83;21.95;;;;;;;18.98;43.32;102272.34;5240576;28;20076;-71
2023/04/09 09:59:23;;;;;;;22.88;20.67;;;;;;;19.38;44.75;102275.78;5240904;28;20028;-70
2023/04/09 10:02:15;;;;;;;22.20;19.90;;;;;;;19.47;41.71;102267.59;5240918;28;20034;-70
2023/04/09 10:04:48;;;;;;;30.42;27.33;;;;;;;19.88;45.11;102262.13;5239844;28;20484;-70
2023/04/09 10:07:21;;;;;;;30.42;27.42;;;;;;;18.70;44.86;102256.25;5241122;28;20484;-70
2023/04/09 10:09:54;;;;;;;;;;;;;;;19.47;47.57;102272.88;5241734;28;20041;-70
2023/04/09 10:12:26;;;;;;;;;;;;;;;18.64;48.39;102262.53;5239555;28;19916;-70
2023/04/09 10:15:03;;;;;;;25.60;22.93;;;;;;;17.02;50.71;102263.03;5241375;28;19917;-70
2023/04/09 10:17:35;;;;;;;26.58;24.00;;;;;;;16.07;49.04;102253.81;5240778;28;20076;-70
2023/04/09 10:20:13;;;;;;;26.95;24.27;;;;;;;16.01;51.42;102255.63;5241197;28;20034;-70
2023/04/09 10:22:48;;;;;;;28.20;25.27;;;;;;;15.80;53.16;102250.63;5240381;28;20037;-69
2023/04/09 10:25:20;;;;;;;26.40;23.58;;;;;;;15.95;52.21;102239.91;5240977;28;20036;-70
2023/04/09 10:28:02;;;;;;;26.55;22.73;;;;;;;16.46;52.08;102243.69;5240851;28;20057;-70
2023/04/09 10:30:34;;;;;;;25.45;22.67;;;;;;;17.01;48.48;102242.00;5240150;28;20061;-70
2023/04/09 10:33:09;;;;;;;;;;;;;;;18.14;48.74;102239.00;5241576;28;20037;-70
2023/04/09 10:35:41;;;;;;;17.55;15.70;;;;;;;17.56;45.63;102240.16;5240222;28;19913;-71
2023/04/09 10:38:13;;;;;;;12.45;11.15;;;;;;;17.93;43.32;102226.28;5240732;28;20125;-70
2023/04/09 10:40:50;;;;;;;13.18;11.77;;;;;;;19.33;43.15;102230.06;5240319;28;20036;-70
2023/04/09 10:43:22;;;;;;;13.02;11.48;;;;;;;20.88;38.27;102222.88;5240542;28;20096;-70
2023/04/09 10:45:56;;;;;;;;;;;;;;;22.71;38.17;102227.69;5238637;28;20033;-71
2023/04/09 10:48:31;;;;;;;15.05;13.45;;;;;;;22.66;34.52;102224.38;5244488;28;20023;-71
2023/04/09 10:51:05;;;;;;;16.27;13.98;;;;;;;21.93;34.19;102215.66;5244091;28;20109;-71
2023/04/09 10:53:37;;;;;;;16.75;14.90;;;;;;;21.05;35.77;102219.66;5244774;28;20120;-71
2023/04/09 10:56:15;;;;;;;18.58;16.25;;;;;;;21.74;35.58;102216.38;5243575;28;20030;-70
2023/04/09 10:58:46;;;;;;;16.00;14.40;;;;;;;22.66;33.44;102213.72;5244515;28;20032;-71
2023/04/09 11:01:21;;;;;;;14.53;13.13;;;;;;;23.34;33.17;102218.88;5244128;28;20341;-71
2023/04/09 11:04:08;;;;;;;12.10;10.82;;;;;;;23.78;31.89;102208.00;5244540;28;20489;-70
2023/04/09 11:06:43;;;;;;;13.80;12.43;;;;;;;23.77;30.90;102212.47;5243228;28;20131;-71
2023/04/09 11:09:15;;;;;;;14.23;12.82;;;;;;;24.49;29.44;102202.91;5243218;28;20055;-71
2023/04/09 11:11:52;;;;;;;14.00;12.55;;;;;;;22.56;32.09;102199.97;5243486;28;20029;-71
2023/04/09 11:14:24;;;;;;;13.48;12.07;;;;;;;20.97;35.59;102192.53;5243850;28;20112;-70
2023/04/09 11:16:56;;;;;;;14.75;12.38;;;;;;;20.63;35.55;102198.06;5243612;28;20052;-70
2023/04/09 11:19:27;;;;;;;14.77;12.80;;;;;;;20.76;35.62;102194.13;5244180;28;20029;-71
2023/04/09 11:21:58;;;;;;;16.20;14.40;;;;;;;20.70;35.73;102191.66;5242294;28;20035;-71
2023/04/09 11:24:39;;;;;;;12.43;11.13;;;;;;;22.31;33.62;102202.72;5243929;28;20037;-71
2023/04/09 11:27:12;;;;;;;12.07;10.80;;;;;;;22.22;31.14;102194.16;5242911;28;20086;-71
2023/04/09 11:29:43;;;;;;;;;;;;;;;23.26;32.52;102203.25;5244111;28;20104;-71
2023/04/09 11:32:15;;;;;;;14.17;12.67;;;;;;;22.61;33.01;102190.00;5243438;28;19913;-71
2023/04/09 11:34:46;;;;;;;14.70;13.23;;;;;;;22.19;32.04;102188.13;5244053;28;20059;-71
2023/04/09 11:37:17;;;;;;;13.37;11.63;;;;;;;21.45;33.20;102188.22;5243127;28;20485;-71
2023/04/09 11:39:53;;;;;;;13.17;11.93;;;;;;;20.66;34.21;102185.63;5243879;28;20032;-71